Flugplatz Gundelfingen

Für EDMU sind keine METAR/TAF Berichte vorhanden.
Es werden die Flugwettermeldungen vom Flugplatz Augsburg in 45 km Entfernung angezeigt.

Bericht für EDMA

vom 17.07. um 23:20 UTC

Wind 2 kt aus 130°

Sichtweite 10 km oder mehr

keine Wolken

Temperatur 11.0°C

Taupunkt 10.0°C

Luftfeuchtigkeit 94%

Luftdruck 1013 hPa

EDMA 172320Z AUTO 13002KT 9999 // NCD 11/10 Q1013

Prognose für EDMA

vom 17.07. um 00:00 UTC

Am 17.07. zwischen 00:00 und 00:00 UTC übergehend zu

variable Windrichtung mit 3 kt

Sichtweite 10 km oder mehr

keine signifikanten Wettererscheinungen

keine Wolken


Am 17.07. zwischen 00:00 UTC und 00:00 UTC

Wind 7 kt aus 340°

Sichtweite 10 km oder mehr

keine signifikanten Wettererscheinungen

keine Wolken

TAF EDMA 171700Z 1718/1803 34007KT CAVOK BECMG 1718/1720 VRB03KT
Impressum